sensor_id;sensor_type;location;lat;lon;timestamp;temperature;humidity
6518;DHT22;3292;48.944;9.240;2023-03-02T00:01:52;1.10;99.90
6518;DHT22;3292;48.944;9.240;2023-03-02T00:04:30;1.10;99.90
6518;DHT22;3292;48.944;9.240;2023-03-02T00:07:14;1.10;99.90
6518;DHT22;3292;48.944;9.240;2023-03-02T00:12:41;1.10;99.90
6518;DHT22;3292;48.944;9.240;2023-03-02T00:15:09;1.00;99.90
6518;DHT22;3292;48.944;9.240;2023-03-02T00:17:36;1.00;99.90
6518;DHT22;3292;48.944;9.240;2023-03-02T00:20:12;1.00;99.90
6518;DHT22;3292;48.944;9.240;2023-03-02T00:22:43;0.90;99.90
6518;DHT22;3292;48.944;9.240;2023-03-02T00:25:13;0.90;99.90
6518;DHT22;3292;48.944;9.240;2023-03-02T00:27:40;0.90;99.90
6518;DHT22;3292;48.944;9.240;2023-03-02T00:30:09;0.90;99.90
6518;DHT22;3292;48.944;9.240;2023-03-02T00:32:37;0.90;99.90
6518;DHT22;3292;48.944;9.240;2023-03-02T00:35:08;0.80;99.90
6518;DHT22;3292;48.944;9.240;2023-03-02T00:37:42;0.80;99.90
6518;DHT22;3292;48.944;9.240;2023-03-02T00:40:19;0.80;99.90
6518;DHT22;3292;48.944;9.240;2023-03-02T00:42:50;0.80;99.90
6518;DHT22;3292;48.944;9.240;2023-03-02T00:45:18;0.80;99.90
6518;DHT22;3292;48.944;9.240;2023-03-02T00:47:57;0.70;99.90
6518;DHT22;3292;48.944;9.240;2023-03-02T00:50:30;0.80;99.90
6518;DHT22;3292;48.944;9.240;2023-03-02T00:55:55;0.70;99.90
6518;DHT22;3292;48.944;9.240;2023-03-02T00:58:24;0.70;99.90
6518;DHT22;3292;48.944;9.240;2023-03-02T01:01:04;0.60;99.90
6518;DHT22;3292;48.944;9.240;2023-03-02T01:03:38;0.60;99.90
6518;DHT22;3292;48.944;9.240;2023-03-02T01:06:18;0.60;99.90
6518;DHT22;3292;48.944;9.240;2023-03-02T01:08:49;0.60;99.90
6518;DHT22;3292;48.944;9.240;2023-03-02T01:11:20;0.50;99.90
6518;DHT22;3292;48.944;9.240;2023-03-02T01:13:51;0.50;99.90
6518;DHT22;3292;48.944;9.240;2023-03-02T01:16:19;0.50;99.90
6518;DHT22;3292;48.944;9.240;2023-03-02T01:18:49;0.50;99.90
6518;DHT22;3292;48.944;9.240;2023-03-02T01:21:20;0.50;99.90
6518;DHT22;3292;48.944;9.240;2023-03-02T01:23:49;0.40;99.90
6518;DHT22;3292;48.944;9.240;2023-03-02T01:28:58;0.40;99.90
6518;DHT22;3292;48.944;9.240;2023-03-02T01:31:27;0.40;99.90
6518;DHT22;3292;48.944;9.240;2023-03-02T01:34:00;0.40;99.90
6518;DHT22;3292;48.944;9.240;2023-03-02T01:36:28;0.40;99.90
6518;DHT22;3292;48.944;9.240;2023-03-02T01:38:58;0.40;99.90
6518;DHT22;3292;48.944;9.240;2023-03-02T01:41:28;0.40;99.90
6518;DHT22;3292;48.944;9.240;2023-03-02T01:43:55;0.40;99.90
6518;DHT22;3292;48.944;9.240;2023-03-02T01:46:24;0.30;99.90
6518;DHT22;3292;48.944;9.240;2023-03-02T01:48:56;0.30;99.90
6518;DHT22;3292;48.944;9.240;2023-03-02T01:51:26;0.30;99.90
6518;DHT22;3292;48.944;9.240;2023-03-02T01:53:59;0.30;99.90
6518;DHT22;3292;48.944;9.240;2023-03-02T01:56:31;0.20;99.90
6518;DHT22;3292;48.944;9.240;2023-03-02T01:59:04;0.20;99.90
6518;DHT22;3292;48.944;9.240;2023-03-02T02:01:36;0.10;99.90
6518;DHT22;3292;48.944;9.240;2023-03-02T02:04:04;0.10;99.90
6518;DHT22;3292;48.944;9.240;2023-03-02T02:06:36;0.10;99.90
6518;DHT22;3292;48.944;9.240;2023-03-02T02:09:08;0.00;99.90
6518;DHT22;3292;48.944;9.240;2023-03-02T02:11:37;0.00;99.90
6518;DHT22;3292;48.944;9.240;2023-03-02T02:14:07;-0.10;99.90
6518;DHT22;3292;48.944;9.240;2023-03-02T02:16:36;-0.10;99.90
6518;DHT22;3292;48.944;9.240;2023-03-02T02:19:06;-0.10;99.90
6518;DHT22;3292;48.944;9.240;2023-03-02T02:21:48;-0.20;99.90
6518;DHT22;3292;48.944;9.240;2023-03-02T02:24:29;-0.20;99.90
6518;DHT22;3292;48.944;9.240;2023-03-02T02:26:59;-0.20;99.90
6518;DHT22;3292;48.944;9.240;2023-03-02T02:29:30;-0.20;99.90
6518;DHT22;3292;48.944;9.240;2023-03-02T02:32:01;-0.20;99.90
6518;DHT22;3292;48.944;9.240;2023-03-02T02:34:33;-0.20;99.90
6518;DHT22;3292;48.944;9.240;2023-03-02T02:37:05;-0.30;99.90
6518;DHT22;3292;48.944;9.240;2023-03-02T02:39:35;-0.30;99.90
6518;DHT22;3292;48.944;9.240;2023-03-02T02:42:08;-0.30;99.90
6518;DHT22;3292;48.944;9.240;2023-03-02T02:44:37;-0.30;99.90
6518;DHT22;3292;48.944;9.240;2023-03-02T02:47:07;-0.30;99.90
6518;DHT22;3292;48.944;9.240;2023-03-02T02:49:39;-0.30;99.90
6518;DHT22;3292;48.944;9.240;2023-03-02T02:52:11;-0.30;99.90
6518;DHT22;3292;48.944;9.240;2023-03-02T02:54:39;-0.30;99.90
6518;DHT22;3292;48.944;9.240;2023-03-02T02:57:09;-0.30;99.90
6518;DHT22;3292;48.944;9.240;2023-03-02T02:59:42;-0.30;99.90
6518;DHT22;3292;48.944;9.240;2023-03-02T03:02:16;-0.30;99.90
6518;DHT22;3292;48.944;9.240;2023-03-02T03:04:44;-0.40;99.90
6518;DHT22;3292;48.944;9.240;2023-03-02T03:07:20;-0.40;99.90
6518;DHT22;3292;48.944;9.240;2023-03-02T03:09:52;-0.40;99.90
6518;DHT22;3292;48.944;9.240;2023-03-02T03:12:24;-0.40;99.90
6518;DHT22;3292;48.944;9.240;2023-03-02T03:14:52;-0.40;99.90
6518;DHT22;3292;48.944;9.240;2023-03-02T03:17:19;-0.40;99.90
6518;DHT22;3292;48.944;9.240;2023-03-02T03:19:46;-0.40;99.90
6518;DHT22;3292;48.944;9.240;2023-03-02T03:22:14;-0.40;99.90
6518;DHT22;3292;48.944;9.240;2023-03-02T03:24:42;-0.50;99.90
6518;DHT22;3292;48.944;9.240;2023-03-02T03:27:12;-0.50;99.90
6518;DHT22;3292;48.944;9.240;2023-03-02T03:29:45;-0.50;99.90
6518;DHT22;3292;48.944;9.240;2023-03-02T03:32:13;-0.50;99.90
6518;DHT22;3292;48.944;9.240;2023-03-02T03:34:40;-0.50;99.90
6518;DHT22;3292;48.944;9.240;2023-03-02T03:37:07;-0.50;99.90
6518;DHT22;3292;48.944;9.240;2023-03-02T03:39:34;-0.60;99.90
6518;DHT22;3292;48.944;9.240;2023-03-02T03:42:01;-0.60;99.90
6518;DHT22;3292;48.944;9.240;2023-03-02T03:44:29;-0.60;99.90
6518;DHT22;3292;48.944;9.240;2023-03-02T03:46:57;-0.60;99.90
6518;DHT22;3292;48.944;9.240;2023-03-02T03:49:24;-0.60;99.90
6518;DHT22;3292;48.944;9.240;2023-03-02T03:51:51;-0.60;99.90
6518;DHT22;3292;48.944;9.240;2023-03-02T03:54:18;-0.60;99.90
6518;DHT22;3292;48.944;9.240;2023-03-02T03:56:47;-0.60;99.90
6518;DHT22;3292;48.944;9.240;2023-03-02T03:59:18;-0.60;99.90
6518;DHT22;3292;48.944;9.240;2023-03-02T04:01:47;-0.60;99.90
6518;DHT22;3292;48.944;9.240;2023-03-02T04:04:18;-0.60;99.90
6518;DHT22;3292;48.944;9.240;2023-03-02T04:06:45;-0.60;99.90
6518;DHT22;3292;48.944;9.240;2023-03-02T04:09:12;-0.70;99.90
6518;DHT22;3292;48.944;9.240;2023-03-02T04:11:42;-0.70;99.90
6518;DHT22;3292;48.944;9.240;2023-03-02T04:14:09;-0.70;99.90
6518;DHT22;3292;48.944;9.240;2023-03-02T04:16:38;-0.70;99.90
6518;DHT22;3292;48.944;9.240;2023-03-02T04:19:06;-0.70;99.90
6518;DHT22;3292;48.944;9.240;2023-03-02T04:21:36;-0.70;99.90
6518;DHT22;3292;48.944;9.240;2023-03-02T04:24:03;-0.70;99.90
6518;DHT22;3292;48.944;9.240;2023-03-02T04:26:31;-0.70;99.90
6518;DHT22;3292;48.944;9.240;2023-03-02T04:28:58;-0.70;99.90
6518;DHT22;3292;48.944;9.240;2023-03-02T04:31:25;-0.70;99.90
6518;DHT22;3292;48.944;9.240;2023-03-02T04:33:52;-0.80;99.90
6518;DHT22;3292;48.944;9.240;2023-03-02T04:36:19;-0.80;99.90
6518;DHT22;3292;48.944;9.240;2023-03-02T04:38:47;-0.80;99.90
6518;DHT22;3292;48.944;9.240;2023-03-02T04:41:14;-0.80;99.90
6518;DHT22;3292;48.944;9.240;2023-03-02T04:43:41;-0.80;99.90
6518;DHT22;3292;48.944;9.240;2023-03-02T04:46:09;-0.80;99.90
6518;DHT22;3292;48.944;9.240;2023-03-02T04:48:39;-0.80;99.90
6518;DHT22;3292;48.944;9.240;2023-03-02T04:51:09;-0.90;99.90
6518;DHT22;3292;48.944;9.240;2023-03-02T04:53:41;-0.90;99.90
6518;DHT22;3292;48.944;9.240;2023-03-02T04:56:09;-0.90;99.90
6518;DHT22;3292;48.944;9.240;2023-03-02T04:58:36;-0.90;99.90
6518;DHT22;3292;48.944;9.240;2023-03-02T05:01:03;-1.00;99.90
6518;DHT22;3292;48.944;9.240;2023-03-02T05:03:34;-1.00;99.90
6518;DHT22;3292;48.944;9.240;2023-03-02T05:06:02;-1.00;99.90
6518;DHT22;3292;48.944;9.240;2023-03-02T05:08:29;-1.00;99.90
6518;DHT22;3292;48.944;9.240;2023-03-02T05:10:56;-1.00;99.90
6518;DHT22;3292;48.944;9.240;2023-03-02T05:13:25;-0.90;99.90
6518;DHT22;3292;48.944;9.240;2023-03-02T05:15:52;-0.90;99.90
6518;DHT22;3292;48.944;9.240;2023-03-02T05:18:22;-0.90;99.90
6518;DHT22;3292;48.944;9.240;2023-03-02T05:20:50;-0.90;99.90
6518;DHT22;3292;48.944;9.240;2023-03-02T05:23:18;-0.90;99.90
6518;DHT22;3292;48.944;9.240;2023-03-02T05:25:50;-0.90;99.90
6518;DHT22;3292;48.944;9.240;2023-03-02T05:28:17;-0.90;99.90
6518;DHT22;3292;48.944;9.240;2023-03-02T05:30:46;-0.90;99.90
6518;DHT22;3292;48.944;9.240;2023-03-02T05:33:13;-1.00;99.90
6518;DHT22;3292;48.944;9.240;2023-03-02T05:35:40;-1.00;99.90
6518;DHT22;3292;48.944;9.240;2023-03-02T05:38:08;-1.00;99.90
6518;DHT22;3292;48.944;9.240;2023-03-02T05:40:36;-1.10;99.90
6518;DHT22;3292;48.944;9.240;2023-03-02T05:43:04;-1.10;99.90
6518;DHT22;3292;48.944;9.240;2023-03-02T05:45:32;-1.10;99.90
6518;DHT22;3292;48.944;9.240;2023-03-02T05:48:01;-1.10;99.90
6518;DHT22;3292;48.944;9.240;2023-03-02T05:50:27;-1.20;99.90
6518;DHT22;3292;48.944;9.240;2023-03-02T05:52:54;-1.10;99.90
6518;DHT22;3292;48.944;9.240;2023-03-02T05:55:22;-1.10;99.90
6518;DHT22;3292;48.944;9.240;2023-03-02T05:57:49;-1.10;99.90
6518;DHT22;3292;48.944;9.240;2023-03-02T06:00:19;-1.10;99.90
6518;DHT22;3292;48.944;9.240;2023-03-02T06:02:46;-1.10;99.90
6518;DHT22;3292;48.944;9.240;2023-03-02T06:05:16;-1.10;99.90
6518;DHT22;3292;48.944;9.240;2023-03-02T06:07:43;-1.10;99.90
6518;DHT22;3292;48.944;9.240;2023-03-02T06:10:11;-1.20;99.90
6518;DHT22;3292;48.944;9.240;2023-03-02T06:12:38;-1.20;99.90
6518;DHT22;3292;48.944;9.240;2023-03-02T06:15:06;-1.20;99.90
6518;DHT22;3292;48.944;9.240;2023-03-02T06:17:33;-1.20;99.90
6518;DHT22;3292;48.944;9.240;2023-03-02T06:20:00;-1.20;99.90
6518;DHT22;3292;48.944;9.240;2023-03-02T06:22:30;-1.20;99.90
6518;DHT22;3292;48.944;9.240;2023-03-02T06:24:57;-1.10;99.90
6518;DHT22;3292;48.944;9.240;2023-03-02T06:27:24;-1.20;99.90
6518;DHT22;3292;48.944;9.240;2023-03-02T06:29:50;-1.10;99.90
6518;DHT22;3292;48.944;9.240;2023-03-02T06:32:17;-1.10;99.90
6518;DHT22;3292;48.944;9.240;2023-03-02T06:34:44;-1.10;99.90
6518;DHT22;3292;48.944;9.240;2023-03-02T06:37:11;-1.00;99.90
6518;DHT22;3292;48.944;9.240;2023-03-02T06:39:39;-1.00;99.90
6518;DHT22;3292;48.944;9.240;2023-03-02T06:42:06;-0.90;99.90
6518;DHT22;3292;48.944;9.240;2023-03-02T06:44:33;-0.80;99.90
6518;DHT22;3292;48.944;9.240;2023-03-02T06:46:59;-0.80;99.90
6518;DHT22;3292;48.944;9.240;2023-03-02T06:49:26;-0.80;99.90
6518;DHT22;3292;48.944;9.240;2023-03-02T06:51:53;-0.80;99.90
6518;DHT22;3292;48.944;9.240;2023-03-02T06:54:20;-0.80;99.90
6518;DHT22;3292;48.944;9.240;2023-03-02T06:56:48;-0.70;99.90
6518;DHT22;3292;48.944;9.240;2023-03-02T06:59:15;-0.70;99.90
6518;DHT22;3292;48.944;9.240;2023-03-02T07:01:41;-0.70;99.90
6518;DHT22;3292;48.944;9.240;2023-03-02T07:04:08;-0.60;99.90
6518;DHT22;3292;48.944;9.240;2023-03-02T07:06:35;-0.60;99.90
6518;DHT22;3292;48.944;9.240;2023-03-02T07:09:02;-0.50;99.90
6518;DHT22;3292;48.944;9.240;2023-03-02T07:11:29;-0.40;99.90
6518;DHT22;3292;48.944;9.240;2023-03-02T07:13:58;-0.30;99.90
6518;DHT22;3292;48.944;9.240;2023-03-02T07:16:25;-0.30;99.90
6518;DHT22;3292;48.944;9.240;2023-03-02T07:18:53;-0.20;99.90
6518;DHT22;3292;48.944;9.240;2023-03-02T07:21:20;-0.10;99.90
6518;DHT22;3292;48.944;9.240;2023-03-02T07:23:46;0.00;99.90
6518;DHT22;3292;48.944;9.240;2023-03-02T07:26:13;0.10;99.90
6518;DHT22;3292;48.944;9.240;2023-03-02T07:28:40;0.30;99.90
6518;DHT22;3292;48.944;9.240;2023-03-02T07:31:09;0.50;99.90
6518;DHT22;3292;48.944;9.240;2023-03-02T07:33:38;0.70;99.90
6518;DHT22;3292;48.944;9.240;2023-03-02T07:36:06;0.90;99.90
6518;DHT22;3292;48.944;9.240;2023-03-02T07:38:35;1.00;99.90
6518;DHT22;3292;48.944;9.240;2023-03-02T07:41:06;1.20;99.90
6518;DHT22;3292;48.944;9.240;2023-03-02T07:43:33;1.40;99.90
6518;DHT22;3292;48.944;9.240;2023-03-02T07:46:01;1.70;99.90
6518;DHT22;3292;48.944;9.240;2023-03-02T07:48:30;1.90;99.90
6518;DHT22;3292;48.944;9.240;2023-03-02T07:50:58;2.10;99.90
6518;DHT22;3292;48.944;9.240;2023-03-02T07:53:25;2.30;99.90
6518;DHT22;3292;48.944;9.240;2023-03-02T07:55:52;2.40;99.90
6518;DHT22;3292;48.944;9.240;2023-03-02T07:58:18;2.60;99.90
6518;DHT22;3292;48.944;9.240;2023-03-02T08:00:46;2.70;99.90
6518;DHT22;3292;48.944;9.240;2023-03-02T08:03:12;2.90;99.90
6518;DHT22;3292;48.944;9.240;2023-03-02T08:05:41;3.10;99.90
6518;DHT22;3292;48.944;9.240;2023-03-02T08:08:07;3.20;99.90
6518;DHT22;3292;48.944;9.240;2023-03-02T08:10:34;3.30;99.90
6518;DHT22;3292;48.944;9.240;2023-03-02T08:13:01;3.60;99.90
6518;DHT22;3292;48.944;9.240;2023-03-02T08:15:28;3.70;99.90
6518;DHT22;3292;48.944;9.240;2023-03-02T08:17:55;4.00;99.90
6518;DHT22;3292;48.944;9.240;2023-03-02T08:20:22;4.30;99.90
6518;DHT22;3292;48.944;9.240;2023-03-02T08:22:50;4.50;99.90
6518;DHT22;3292;48.944;9.240;2023-03-02T08:25:17;4.50;99.90
6518;DHT22;3292;48.944;9.240;2023-03-02T08:27:44;4.70;99.90
6518;DHT22;3292;48.944;9.240;2023-03-02T08:30:12;4.80;99.90
6518;DHT22;3292;48.944;9.240;2023-03-02T08:32:41;5.00;99.90
6518;DHT22;3292;48.944;9.240;2023-03-02T08:35:08;5.00;99.90
6518;DHT22;3292;48.944;9.240;2023-03-02T08:37:35;5.00;99.90
6518;DHT22;3292;48.944;9.240;2023-03-02T08:40:04;5.10;99.90
6518;DHT22;3292;48.944;9.240;2023-03-02T08:42:31;5.30;99.90
6518;DHT22;3292;48.944;9.240;2023-03-02T08:44:58;5.40;99.90
6518;DHT22;3292;48.944;9.240;2023-03-02T08:47:25;5.60;99.90
6518;DHT22;3292;48.944;9.240;2023-03-02T08:49:52;5.80;99.90
6518;DHT22;3292;48.944;9.240;2023-03-02T08:52:19;5.70;99.90
6518;DHT22;3292;48.944;9.240;2023-03-02T08:54:46;5.60;99.90
6518;DHT22;3292;48.944;9.240;2023-03-02T08:57:14;5.80;99.90
6518;DHT22;3292;48.944;9.240;2023-03-02T08:59:41;5.90;99.90
6518;DHT22;3292;48.944;9.240;2023-03-02T09:02:10;6.20;99.90
6518;DHT22;3292;48.944;9.240;2023-03-02T09:04:37;6.40;99.90
6518;DHT22;3292;48.944;9.240;2023-03-02T09:07:04;6.50;99.90
6518;DHT22;3292;48.944;9.240;2023-03-02T09:09:30;6.60;99.90
6518;DHT22;3292;48.944;9.240;2023-03-02T09:11:57;6.80;99.90
6518;DHT22;3292;48.944;9.240;2023-03-02T09:14:25;6.70;99.90
6518;DHT22;3292;48.944;9.240;2023-03-02T09:16:52;7.00;99.90
6518;DHT22;3292;48.944;9.240;2023-03-02T09:19:20;7.20;99.90
6518;DHT22;3292;48.944;9.240;2023-03-02T09:21:47;7.50;99.90
6518;DHT22;3292;48.944;9.240;2023-03-02T09:24:14;7.70;99.90
6518;DHT22;3292;48.944;9.240;2023-03-02T09:26:41;7.70;99.90
6518;DHT22;3292;48.944;9.240;2023-03-02T09:29:08;7.70;99.90
6518;DHT22;3292;48.944;9.240;2023-03-02T09:31:36;7.80;99.90
6518;DHT22;3292;48.944;9.240;2023-03-02T09:34:03;8.10;99.90
6518;DHT22;3292;48.944;9.240;2023-03-02T09:36:30;8.10;99.90
6518;DHT22;3292;48.944;9.240;2023-03-02T09:38:57;8.30;99.90
6518;DHT22;3292;48.944;9.240;2023-03-02T09:44:54;8.60;99.90
6518;DHT22;3292;48.944;9.240;2023-03-02T09:47:29;8.90;99.90
6518;DHT22;3292;48.944;9.240;2023-03-02T09:50:09;9.00;99.90
6518;DHT22;3292;48.944;9.240;2023-03-02T09:52:39;9.00;99.90
6518;DHT22;3292;48.944;9.240;2023-03-02T09:55:13;9.00;99.90
6518;DHT22;3292;48.944;9.240;2023-03-02T09:57:41;8.70;99.90
6518;DHT22;3292;48.944;9.240;2023-03-02T10:00:12;8.40;99.90
6518;DHT22;3292;48.944;9.240;2023-03-02T10:02:46;8.60;99.90
6518;DHT22;3292;48.944;9.240;2023-03-02T10:05:16;8.80;99.90
6518;DHT22;3292;48.944;9.240;2023-03-02T10:07:45;9.00;99.90
6518;DHT22;3292;48.944;9.240;2023-03-02T10:10:25;9.00;99.90
6518;DHT22;3292;48.944;9.240;2023-03-02T10:13:19;9.20;99.90
6518;DHT22;3292;48.944;9.240;2023-03-02T10:15:55;9.00;99.90
6518;DHT22;3292;48.944;9.240;2023-03-02T10:18:30;9.10;99.90
6518;DHT22;3292;48.944;9.240;2023-03-02T10:21:02;9.20;99.90
6518;DHT22;3292;48.944;9.240;2023-03-02T10:23:38;9.40;99.90
6518;DHT22;3292;48.944;9.240;2023-03-02T10:26:18;9.40;99.90
6518;DHT22;3292;48.944;9.240;2023-03-02T10:28:47;9.50;99.90
6518;DHT22;3292;48.944;9.240;2023-03-02T10:31:20;9.60;99.90
6518;DHT22;3292;48.944;9.240;2023-03-02T10:33:50;9.60;99.90
6518;DHT22;3292;48.944;9.240;2023-03-02T10:36:21;9.50;99.90
6518;DHT22;3292;48.944;9.240;2023-03-02T10:38:49;9.70;99.90
6518;DHT22;3292;48.944;9.240;2023-03-02T10:41:21;9.80;99.90
6518;DHT22;3292;48.944;9.240;2023-03-02T10:43:50;10.00;99.90
6518;DHT22;3292;48.944;9.240;2023-03-02T10:46:18;9.90;99.90
6518;DHT22;3292;48.944;9.240;2023-03-02T10:48:51;9.90;99.90
6518;DHT22;3292;48.944;9.240;2023-03-02T10:51:23;9.90;99.90
6518;DHT22;3292;48.944;9.240;2023-03-02T10:54:04;9.90;99.90
6518;DHT22;3292;48.944;9.240;2023-03-02T10:56:32;10.00;99.90
6518;DHT22;3292;48.944;9.240;2023-03-02T10:58:59;10.10;99.90
6518;DHT22;3292;48.944;9.240;2023-03-02T11:01:29;10.30;99.90
6518;DHT22;3292;48.944;9.240;2023-03-02T11:04:00;10.30;99.90
6518;DHT22;3292;48.944;9.240;2023-03-02T11:06:28;10.40;99.90
6518;DHT22;3292;48.944;9.240;2023-03-02T11:08:59;10.50;99.90
6518;DHT22;3292;48.944;9.240;2023-03-02T11:11:27;10.70;99.90
6518;DHT22;3292;48.944;9.240;2023-03-02T11:13:55;10.60;99.90
6518;DHT22;3292;48.944;9.240;2023-03-02T11:16:25;10.30;99.90
6518;DHT22;3292;48.944;9.240;2023-03-02T11:18:55;10.10;99.90
6518;DHT22;3292;48.944;9.240;2023-03-02T11:21:29;10.20;99.90
6518;DHT22;3292;48.944;9.240;2023-03-02T11:24:06;10.20;99.90
6518;DHT22;3292;48.944;9.240;2023-03-02T11:26:36;10.60;99.90
6518;DHT22;3292;48.944;9.240;2023-03-02T11:29:08;10.60;99.90
6518;DHT22;3292;48.944;9.240;2023-03-02T11:31:41;10.50;99.90
6518;DHT22;3292;48.944;9.240;2023-03-02T11:34:26;10.60;99.90
6518;DHT22;3292;48.944;9.240;2023-03-02T11:37:03;10.70;99.90
6518;DHT22;3292;48.944;9.240;2023-03-02T11:39:47;10.90;99.90
6518;DHT22;3292;48.944;9.240;2023-03-02T11:42:20;11.10;99.90
6518;DHT22;3292;48.944;9.240;2023-03-02T11:44:47;11.30;99.90
6518;DHT22;3292;48.944;9.240;2023-03-02T11:47:15;11.40;99.90
6518;DHT22;3292;48.944;9.240;2023-03-02T11:49:45;11.40;99.90
6518;DHT22;3292;48.944;9.240;2023-03-02T11:52:18;11.40;99.90
6518;DHT22;3292;48.944;9.240;2023-03-02T11:54:49;11.40;99.90
6518;DHT22;3292;48.944;9.240;2023-03-02T11:57:21;11.40;99.90
6518;DHT22;3292;48.944;9.240;2023-03-02T11:59:49;11.50;99.90
6518;DHT22;3292;48.944;9.240;2023-03-02T12:02:17;11.70;99.90
6518;DHT22;3292;48.944;9.240;2023-03-02T12:04:46;11.80;99.90
6518;DHT22;3292;48.944;9.240;2023-03-02T12:07:20;12.00;99.90
6518;DHT22;3292;48.944;9.240;2023-03-02T12:10:07;11.50;99.90
6518;DHT22;3292;48.944;9.240;2023-03-02T12:12:38;11.40;99.90
6518;DHT22;3292;48.944;9.240;2023-03-02T12:18:30;11.80;99.90
6518;DHT22;3292;48.944;9.240;2023-03-02T12:20:58;11.80;99.90
6518;DHT22;3292;48.944;9.240;2023-03-02T12:23:28;11.80;99.90
6518;DHT22;3292;48.944;9.240;2023-03-02T12:26:06;11.60;99.90
6518;DHT22;3292;48.944;9.240;2023-03-02T12:28:35;11.70;99.90
6518;DHT22;3292;48.944;9.240;2023-03-02T12:31:10;11.70;99.90
6518;DHT22;3292;48.944;9.240;2023-03-02T12:33:42;11.80;99.90
6518;DHT22;3292;48.944;9.240;2023-03-02T12:36:15;11.80;99.90
6518;DHT22;3292;48.944;9.240;2023-03-02T12:38:54;11.80;99.90
6518;DHT22;3292;48.944;9.240;2023-03-02T12:41:38;11.80;99.90
6518;DHT22;3292;48.944;9.240;2023-03-02T12:44:25;11.90;99.90
6518;DHT22;3292;48.944;9.240;2023-03-02T12:46:58;11.40;99.90
6518;DHT22;3292;48.944;9.240;2023-03-02T12:49:42;11.00;99.90
6518;DHT22;3292;48.944;9.240;2023-03-02T12:52:25;10.90;99.90
6518;DHT22;3292;48.944;9.240;2023-03-02T12:55:03;11.00;99.90
6518;DHT22;3292;48.944;9.240;2023-03-02T12:57:31;11.20;99.90
6518;DHT22;3292;48.944;9.240;2023-03-02T13:00:00;11.10;99.90
6518;DHT22;3292;48.944;9.240;2023-03-02T13:02:29;11.30;99.90
6518;DHT22;3292;48.944;9.240;2023-03-02T13:04:57;11.40;99.90
6518;DHT22;3292;48.944;9.240;2023-03-02T13:07:26;11.80;99.90
6518;DHT22;3292;48.944;9.240;2023-03-02T13:09:56;12.00;99.90
6518;DHT22;3292;48.944;9.240;2023-03-02T13:12:35;12.10;99.90
6518;DHT22;3292;48.944;9.240;2023-03-02T13:15:12;12.30;99.90
6518;DHT22;3292;48.944;9.240;2023-03-02T13:17:40;12.10;99.90
6518;DHT22;3292;48.944;9.240;2023-03-02T13:20:11;11.90;99.90
6518;DHT22;3292;48.944;9.240;2023-03-02T13:22:39;11.90;99.90
6518;DHT22;3292;48.944;9.240;2023-03-02T13:25:21;12.10;99.90
6518;DHT22;3292;48.944;9.240;2023-03-02T13:27:54;12.20;99.90
6518;DHT22;3292;48.944;9.240;2023-03-02T13:30:24;12.20;99.90
6518;DHT22;3292;48.944;9.240;2023-03-02T13:32:51;12.10;99.90
6518;DHT22;3292;48.944;9.240;2023-03-02T13:35:22;12.10;99.90
6518;DHT22;3292;48.944;9.240;2023-03-02T13:38:01;12.20;99.90
6518;DHT22;3292;48.944;9.240;2023-03-02T13:40:32;12.30;99.90
6518;DHT22;3292;48.944;9.240;2023-03-02T13:43:00;12.20;99.90
6518;DHT22;3292;48.944;9.240;2023-03-02T13:45:33;12.10;99.90
6518;DHT22;3292;48.944;9.240;2023-03-02T13:48:12;12.00;99.90
6518;DHT22;3292;48.944;9.240;2023-03-02T13:50:50;12.00;99.90
6518;DHT22;3292;48.944;9.240;2023-03-02T13:53:21;11.90;99.90
6518;DHT22;3292;48.944;9.240;2023-03-02T13:55:52;11.80;99.90
6518;DHT22;3292;48.944;9.240;2023-03-02T13:58:23;11.70;99.90
6518;DHT22;3292;48.944;9.240;2023-03-02T14:00:51;11.80;99.90
6518;DHT22;3292;48.944;9.240;2023-03-02T14:03:23;11.80;99.90
6518;DHT22;3292;48.944;9.240;2023-03-02T14:05:57;11.80;99.90
6518;DHT22;3292;48.944;9.240;2023-03-02T14:08:26;12.00;99.90
6518;DHT22;3292;48.944;9.240;2023-03-02T14:10:55;12.00;99.90
6518;DHT22;3292;48.944;9.240;2023-03-02T14:13:32;12.10;99.90
6518;DHT22;3292;48.944;9.240;2023-03-02T14:16:01;12.10;99.90
6518;DHT22;3292;48.944;9.240;2023-03-02T14:18:38;12.20;99.90
6518;DHT22;3292;48.944;9.240;2023-03-02T14:21:16;12.10;99.90
6518;DHT22;3292;48.944;9.240;2023-03-02T14:23:44;11.90;99.90
6518;DHT22;3292;48.944;9.240;2023-03-02T14:26:30;11.90;99.90
6518;DHT22;3292;48.944;9.240;2023-03-02T14:29:00;11.80;99.90
6518;DHT22;3292;48.944;9.240;2023-03-02T14:31:29;11.90;99.90
6518;DHT22;3292;48.944;9.240;2023-03-02T14:33:55;12.00;99.90
6518;DHT22;3292;48.944;9.240;2023-03-02T14:36:27;12.20;99.90
6518;DHT22;3292;48.944;9.240;2023-03-02T14:38:55;12.20;99.90
6518;DHT22;3292;48.944;9.240;2023-03-02T14:41:23;12.30;99.90
6518;DHT22;3292;48.944;9.240;2023-03-02T14:43:50;12.40;99.90
6518;DHT22;3292;48.944;9.240;2023-03-02T14:46:19;12.20;99.90
6518;DHT22;3292;48.944;9.240;2023-03-02T14:48:47;12.00;99.90
6518;DHT22;3292;48.944;9.240;2023-03-02T14:51:23;12.00;99.90
6518;DHT22;3292;48.944;9.240;2023-03-02T14:53:54;12.10;99.90
6518;DHT22;3292;48.944;9.240;2023-03-02T14:56:23;12.00;99.90
6518;DHT22;3292;48.944;9.240;2023-03-02T14:58:51;12.10;99.90
6518;DHT22;3292;48.944;9.240;2023-03-02T15:01:20;12.10;99.90
6518;DHT22;3292;48.944;9.240;2023-03-02T15:03:48;12.20;99.90
6518;DHT22;3292;48.944;9.240;2023-03-02T15:06:24;12.20;99.90
6518;DHT22;3292;48.944;9.240;2023-03-02T15:08:51;12.20;99.90
6518;DHT22;3292;48.944;9.240;2023-03-02T15:11:18;12.20;99.90
6518;DHT22;3292;48.944;9.240;2023-03-02T15:13:44;12.20;99.90
6518;DHT22;3292;48.944;9.240;2023-03-02T15:16:11;12.20;99.90
6518;DHT22;3292;48.944;9.240;2023-03-02T15:18:39;12.30;99.90
6518;DHT22;3292;48.944;9.240;2023-03-02T15:21:08;11.90;99.90
6518;DHT22;3292;48.944;9.240;2023-03-02T15:23:37;11.90;99.90
6518;DHT22;3292;48.944;9.240;2023-03-02T15:26:04;11.70;99.90
6518;DHT22;3292;48.944;9.240;2023-03-02T15:28:31;11.70;99.90
6518;DHT22;3292;48.944;9.240;2023-03-02T15:31:05;11.70;99.90
6518;DHT22;3292;48.944;9.240;2023-03-02T15:33:32;11.70;99.90
6518;DHT22;3292;48.944;9.240;2023-03-02T15:36:00;11.60;99.90
6518;DHT22;3292;48.944;9.240;2023-03-02T15:38:30;11.50;99.90
6518;DHT22;3292;48.944;9.240;2023-03-02T15:40:57;11.50;99.90
6518;DHT22;3292;48.944;9.240;2023-03-02T15:43:24;11.50;99.90
6518;DHT22;3292;48.944;9.240;2023-03-02T15:45:51;11.40;99.90
6518;DHT22;3292;48.944;9.240;2023-03-02T15:48:18;11.30;99.90
6518;DHT22;3292;48.944;9.240;2023-03-02T15:50:55;11.30;99.90
6518;DHT22;3292;48.944;9.240;2023-03-02T15:53:23;11.30;99.90
6518;DHT22;3292;48.944;9.240;2023-03-02T15:55:50;11.20;99.90
6518;DHT22;3292;48.944;9.240;2023-03-02T15:58:16;11.20;99.90
6518;DHT22;3292;48.944;9.240;2023-03-02T16:00:43;11.10;99.90
6518;DHT22;3292;48.944;9.240;2023-03-02T16:03:10;11.10;99.90
6518;DHT22;3292;48.944;9.240;2023-03-02T16:05:39;11.20;99.90
6518;DHT22;3292;48.944;9.240;2023-03-02T16:08:06;11.20;99.90
6518;DHT22;3292;48.944;9.240;2023-03-02T16:10:34;11.10;99.90
6518;DHT22;3292;48.944;9.240;2023-03-02T16:13:01;11.00;99.90
6518;DHT22;3292;48.944;9.240;2023-03-02T16:15:28;10.90;99.90
6518;DHT22;3292;48.944;9.240;2023-03-02T16:17:55;10.90;99.90
6518;DHT22;3292;48.944;9.240;2023-03-02T16:20:22;10.80;99.90
6518;DHT22;3292;48.944;9.240;2023-03-02T16:22:52;10.80;99.90
6518;DHT22;3292;48.944;9.240;2023-03-02T16:25:31;10.70;99.90
6518;DHT22;3292;48.944;9.240;2023-03-02T16:28:06;10.70;99.90
6518;DHT22;3292;48.944;9.240;2023-03-02T16:30:36;10.60;99.90
6518;DHT22;3292;48.944;9.240;2023-03-02T16:33:05;10.60;99.90
6518;DHT22;3292;48.944;9.240;2023-03-02T16:35:40;10.50;99.90
6518;DHT22;3292;48.944;9.240;2023-03-02T16:38:12;10.50;99.90
6518;DHT22;3292;48.944;9.240;2023-03-02T16:40:51;10.50;99.90